createdAt,value
2018-11-14T00:01:20.760Z,8.10
2018-11-14T00:03:49.383Z,10.27
2018-11-14T00:06:17.989Z,11.43
2018-11-14T00:08:46.599Z,13.00
2018-11-14T00:11:15.272Z,9.43
2018-11-14T00:13:43.954Z,11.90
2018-11-14T00:16:12.594Z,13.03
2018-11-14T00:18:41.367Z,11.80
2018-11-14T00:21:10.213Z,13.33
2018-11-14T00:23:38.631Z,11.83
2018-11-14T00:26:07.283Z,9.63
2018-11-14T00:28:36.314Z,5.77
2018-11-14T00:31:04.693Z,11.00
2018-11-14T00:33:33.320Z,9.63
2018-11-14T00:36:01.943Z,9.77
2018-11-14T00:38:30.575Z,10.13
2018-11-14T00:40:59.375Z,9.53
2018-11-14T00:43:27.967Z,8.63
2018-11-14T00:45:56.635Z,10.33
2018-11-14T00:48:25.255Z,12.07
2018-11-14T00:50:53.878Z,16.50
2018-11-14T00:53:22.499Z,18.00
2018-11-14T00:55:51.134Z,13.93
2018-11-14T00:58:19.740Z,16.37
2018-11-14T01:00:48.367Z,14.57
2018-11-14T01:03:16.987Z,11.93
2018-11-14T01:05:45.610Z,4.17
2018-11-14T01:08:14.218Z,12.93
2018-11-14T01:10:42.803Z,7.97
2018-11-14T01:13:11.500Z,12.10
2018-11-14T01:15:40.071Z,13.93
2018-11-14T01:18:08.706Z,12.57
2018-11-14T01:20:37.298Z,5.37
2018-11-14T01:23:06.598Z,9.87
2018-11-14T01:25:35.238Z,9.93
2018-11-14T01:28:03.858Z,11.40
2018-11-14T01:30:32.490Z,5.43
2018-11-14T01:33:01.078Z,12.83
2018-11-14T01:35:29.686Z,13.00
2018-11-14T01:37:58.324Z,12.93
2018-11-14T01:40:26.958Z,11.53
2018-11-14T01:42:56.754Z,7.43
2018-11-14T01:45:25.406Z,12.77
2018-11-14T01:47:54.058Z,13.67
2018-11-14T01:50:22.701Z,12.07
2018-11-14T01:52:51.329Z,12.83
2018-11-14T01:55:20.778Z,12.97
2018-11-14T01:57:49.275Z,11.20
2018-11-14T02:00:21.763Z,12.13
2018-11-14T02:02:50.279Z,12.90
2018-11-14T02:05:18.810Z,13.30
2018-11-14T02:07:47.340Z,11.60
2018-11-14T02:10:17.200Z,15.67
2018-11-14T02:12:46.071Z,13.63
2018-11-14T02:15:16.814Z,12.53
2018-11-14T02:17:45.394Z,9.07
2018-11-14T02:20:14.165Z,11.57
2018-11-14T02:22:43.287Z,12.37
2018-11-14T02:25:12.395Z,8.33
2018-11-14T02:27:41.219Z,14.17
2018-11-14T02:30:14.674Z,12.20
2018-11-14T02:32:43.194Z,12.20
2018-11-14T02:35:11.828Z,12.30
2018-11-14T02:37:41.542Z,9.73
2018-11-14T02:40:12.406Z,8.67
2018-11-14T02:42:41.325Z,11.40
2018-11-14T02:45:10.358Z,12.13
2018-11-14T02:47:38.882Z,15.27
2018-11-14T02:50:08.906Z,13.17
2018-11-14T02:52:37.418Z,4.83
2018-11-14T02:55:07.207Z,12.10
2018-11-14T02:57:35.781Z,13.40
2018-11-14T03:00:04.816Z,13.70
2018-11-14T03:02:33.317Z,14.53
2018-11-14T03:05:01.967Z,12.67
2018-11-14T03:07:30.436Z,9.77
2018-11-14T03:09:58.929Z,10.67
2018-11-14T03:12:27.462Z,14.17
2018-11-14T03:14:56.008Z,15.63
2018-11-14T03:17:24.512Z,6.43
2018-11-14T03:19:53.009Z,16.07
2018-11-14T03:22:21.504Z,12.33
2018-11-14T03:24:49.993Z,16.03
2018-11-14T03:27:18.544Z,14.70
2018-11-14T03:29:46.976Z,14.07
2018-11-14T03:32:15.448Z,12.10
2018-11-14T03:34:43.935Z,15.00
2018-11-14T03:37:12.428Z,12.93
2018-11-14T03:39:40.944Z,16.23
2018-11-14T03:42:09.416Z,12.97
2018-11-14T03:44:37.912Z,14.43
2018-11-14T03:47:06.451Z,13.33
2018-11-14T03:49:34.983Z,13.97
2018-11-14T03:52:03.520Z,14.07
2018-11-14T03:54:32.028Z,12.13
2018-11-14T03:57:00.511Z,14.40
2018-11-14T03:59:28.995Z,14.83
2018-11-14T04:01:57.488Z,12.70
2018-11-14T04:04:25.979Z,11.63
2018-11-14T04:06:54.513Z,14.87
2018-11-14T04:09:23.024Z,15.60
2018-11-14T04:11:51.524Z,12.53
2018-11-14T04:14:20.040Z,7.63
2018-11-14T04:16:48.530Z,11.20
2018-11-14T04:19:17.203Z,12.93
2018-11-14T04:21:45.689Z,13.27
2018-11-14T04:24:14.153Z,13.47
2018-11-14T04:26:42.658Z,9.90
2018-11-14T04:29:11.191Z,11.37
2018-11-14T04:31:39.699Z,11.43
2018-11-14T04:34:08.193Z,14.00
2018-11-14T04:36:36.699Z,4.90
2018-11-14T04:39:08.243Z,9.97
2018-11-14T04:41:36.871Z,11.10
2018-11-14T04:44:06.035Z,12.83
2018-11-14T04:46:34.539Z,11.77
2018-11-14T04:49:03.175Z,12.57
2018-11-14T04:51:31.679Z,9.67
2018-11-14T04:54:00.207Z,10.40
2018-11-14T04:56:28.727Z,11.87
2018-11-14T04:58:57.239Z,11.23
2018-11-14T05:01:25.747Z,7.57
2018-11-14T05:03:54.295Z,11.93
2018-11-14T05:06:22.806Z,11.60
2018-11-14T05:08:51.351Z,12.40
2018-11-14T05:11:19.858Z,11.53
2018-11-14T05:13:48.375Z,6.03
2018-11-14T05:16:16.894Z,12.67
2018-11-14T05:18:45.411Z,8.23
2018-11-14T05:21:13.933Z,11.73
2018-11-14T05:23:42.527Z,11.70
2018-11-14T05:26:11.036Z,10.73
2018-11-14T05:28:39.570Z,6.70
2018-11-14T05:31:08.070Z,6.93
2018-11-14T05:33:36.606Z,6.07
2018-11-14T05:36:05.126Z,9.30
2018-11-14T05:38:33.638Z,7.37
2018-11-14T05:41:02.163Z,13.23
2018-11-14T05:43:30.653Z,13.27
2018-11-14T05:45:59.274Z,14.70
2018-11-14T05:48:27.794Z,14.83
2018-11-14T05:50:56.378Z,11.07
2018-11-14T05:53:24.894Z,13.67
2018-11-14T05:55:53.422Z,16.27
2018-11-14T05:58:21.950Z,15.90
2018-11-14T06:00:50.474Z,8.60
2018-11-14T06:03:18.993Z,14.87
2018-11-14T06:05:47.503Z,13.30
2018-11-14T06:08:16.018Z,15.57
2018-11-14T06:10:44.549Z,15.00
2018-11-14T06:13:13.058Z,13.30
2018-11-14T06:15:41.598Z,14.43
2018-11-14T06:18:10.466Z,13.23
2018-11-14T06:20:38.966Z,4.40
2018-11-14T06:23:08.374Z,14.97
2018-11-14T06:25:38.715Z,11.40
2018-11-14T06:28:08.498Z,10.27
2018-11-14T06:30:37.605Z,11.27
2018-11-14T06:33:07.259Z,10.20
2018-11-14T06:35:35.969Z,15.40
2018-11-14T06:38:04.513Z,13.90
2018-11-14T06:40:33.229Z,6.97
2018-11-14T06:43:01.754Z,15.17
2018-11-14T06:45:31.604Z,11.70
2018-11-14T06:48:01.002Z,8.67
2018-11-14T06:50:29.576Z,13.10
2018-11-14T06:53:02.574Z,12.23
2018-11-14T06:55:31.113Z,9.67
2018-11-14T06:57:59.650Z,10.07
2018-11-14T07:00:30.441Z,14.50
2018-11-14T07:02:59.710Z,13.57
2018-11-14T07:05:28.319Z,10.07
2018-11-14T07:07:56.759Z,13.50
2018-11-14T07:10:29.737Z,13.30
2018-11-14T07:13:03.609Z,12.03
2018-11-14T07:15:32.186Z,12.87
2018-11-14T07:18:00.734Z,10.57
2018-11-14T07:20:31.573Z,12.33
2018-11-14T07:23:00.109Z,12.83
2018-11-14T07:25:28.634Z,13.50
2018-11-14T07:27:57.289Z,10.80
2018-11-14T07:30:26.981Z,12.37
2018-11-14T07:32:56.869Z,11.40
2018-11-14T07:35:25.409Z,13.07
2018-11-14T07:39:00.889Z,10.33
2018-11-14T07:41:31.925Z,12.90
2018-11-14T07:44:00.706Z,11.43
2018-11-14T07:46:30.401Z,15.40
2018-11-14T07:48:59.127Z,15.50
2018-11-14T07:51:27.618Z,6.47
2018-11-14T07:53:56.288Z,13.43
2018-11-14T07:56:24.809Z,7.73
2018-11-14T07:58:53.396Z,14.73
2018-11-14T08:01:21.993Z,12.07
2018-11-14T08:03:50.527Z,9.13
2018-11-14T08:06:19.129Z,13.53
2018-11-14T08:08:48.015Z,13.00
2018-11-14T08:11:16.597Z,6.53
2018-11-14T08:13:46.477Z,14.03
2018-11-14T08:16:15.084Z,8.67
2018-11-14T08:18:43.666Z,14.83
2018-11-14T08:21:12.129Z,16.07
2018-11-14T08:23:40.648Z,7.90
2018-11-14T08:26:09.153Z,12.67
2018-11-14T08:28:37.705Z,10.03
2018-11-14T08:31:06.299Z,13.13
2018-11-14T08:33:34.793Z,6.57
2018-11-14T08:36:03.317Z,7.97
2018-11-14T08:38:31.856Z,11.40
2018-11-14T08:41:00.368Z,8.33
2018-11-14T08:43:28.892Z,6.87
2018-11-14T08:45:57.392Z,12.03
2018-11-14T08:48:25.895Z,14.43
2018-11-14T08:50:54.440Z,7.77
2018-11-14T08:53:22.960Z,7.80
2018-11-14T08:55:51.487Z,5.33
2018-11-14T08:58:20.036Z,15.60
2018-11-14T09:00:48.596Z,14.70
2018-11-14T09:03:17.099Z,13.63
2018-11-14T09:05:45.700Z,10.67
2018-11-14T09:08:14.204Z,13.90
2018-11-14T09:10:42.720Z,14.33
2018-11-14T09:13:12.966Z,13.00
2018-11-14T09:15:41.580Z,14.63
2018-11-14T09:18:10.109Z,12.50
2018-11-14T09:20:38.607Z,14.17
2018-11-14T09:23:07.407Z,15.27
2018-11-14T09:25:36.058Z,15.43
2018-11-14T09:28:04.771Z,10.60
2018-11-14T09:30:33.276Z,15.07
2018-11-14T09:33:01.876Z,8.53
2018-11-14T09:35:30.371Z,11.37
2018-11-14T09:38:00.055Z,14.10
2018-11-14T09:40:29.255Z,16.60
2018-11-14T09:42:57.767Z,12.63
2018-11-14T09:45:27.568Z,12.87
2018-11-14T09:47:56.148Z,6.73
2018-11-14T09:50:25.864Z,15.70
2018-11-14T09:52:55.620Z,14.70
2018-11-14T09:55:24.135Z,10.17
2018-11-14T09:57:52.638Z,13.10
2018-11-14T10:00:35.544Z,9.00
2018-11-14T10:03:10.666Z,7.33
2018-11-14T10:05:39.195Z,12.53
2018-11-14T10:08:07.735Z,13.40
2018-11-14T10:10:36.259Z,10.83
2018-11-14T10:13:05.035Z,11.67
2018-11-14T10:15:33.545Z,9.50
2018-11-14T10:18:02.027Z,10.93
2018-11-14T10:20:30.570Z,12.00
2018-11-14T10:22:59.110Z,9.43
2018-11-14T10:25:27.638Z,10.37
2018-11-14T10:27:56.203Z,11.20
2018-11-14T10:30:25.901Z,7.80
2018-11-14T10:32:54.610Z,7.30
2018-11-14T10:35:23.134Z,9.43
2018-11-14T10:37:51.674Z,4.10
2018-11-14T10:40:22.622Z,8.27
2018-11-14T10:42:51.214Z,6.77
2018-11-14T10:45:20.705Z,9.70
2018-11-14T10:47:49.249Z,8.73
2018-11-14T10:50:21.866Z,4.40
2018-11-14T10:52:50.387Z,9.10
2018-11-14T10:55:19.441Z,8.27
2018-11-14T10:57:47.949Z,6.50
2018-11-14T11:00:25.017Z,9.60
2018-11-14T11:02:58.980Z,10.23
2018-11-14T11:05:33.701Z,10.87
2018-11-14T11:08:07.659Z,4.30
2018-11-14T11:10:41.437Z,7.27
2018-11-14T11:14:14.801Z,4.73
2018-11-14T11:18:51.324Z,3.70
2018-11-14T11:21:19.901Z,5.60
2018-11-14T11:23:48.433Z,6.30
2018-11-14T11:26:17.001Z,4.07
2018-11-14T11:28:45.537Z,6.73
2018-11-14T11:31:14.073Z,9.27
2018-11-14T11:33:42.672Z,6.40
2018-11-14T11:36:11.191Z,5.67
2018-11-14T11:38:39.701Z,6.80
2018-11-14T11:41:08.269Z,5.97
2018-11-14T11:43:36.828Z,5.93
2018-11-14T11:46:05.476Z,5.30
2018-11-14T11:48:34.032Z,8.77
2018-11-14T11:51:02.620Z,7.27
2018-11-14T11:53:31.116Z,9.60
2018-11-14T11:55:59.672Z,7.47
2018-11-14T11:58:28.202Z,8.97
2018-11-14T12:00:56.804Z,6.90
2018-11-14T12:03:25.373Z,6.43
2018-11-14T12:05:53.967Z,5.10
2018-11-14T12:08:22.581Z,5.50
2018-11-14T12:10:51.206Z,6.67
2018-11-14T12:13:19.785Z,6.27
2018-11-14T12:15:48.347Z,7.77
2018-11-14T12:18:16.912Z,4.50
2018-11-14T12:20:45.460Z,2.47
2018-11-14T12:23:13.996Z,6.27
2018-11-14T12:25:42.620Z,3.63
2018-11-14T12:28:11.124Z,5.70
2018-11-14T12:30:39.667Z,4.97
2018-11-14T12:33:08.167Z,5.57
2018-11-14T12:35:36.756Z,4.70
2018-11-14T12:38:05.303Z,4.17
2018-11-14T12:40:33.787Z,5.53
2018-11-14T12:43:02.279Z,4.10
2018-11-14T12:45:30.803Z,4.27
2018-11-14T12:47:59.299Z,5.30
2018-11-14T12:50:27.839Z,4.40
2018-11-14T12:52:56.371Z,4.83
2018-11-14T12:55:24.899Z,4.60
2018-11-14T12:57:53.415Z,2.33
2018-11-14T13:00:22.303Z,4.77
2018-11-14T13:02:50.792Z,6.07
2018-11-14T13:05:19.303Z,5.37
2018-11-14T13:07:47.909Z,5.97
2018-11-14T13:10:17.714Z,4.83
2018-11-14T13:12:47.251Z,6.13
2018-11-14T13:15:17.051Z,6.13
2018-11-14T13:17:45.603Z,7.30
2018-11-14T13:20:16.463Z,7.87
2018-11-14T13:22:45.221Z,7.60
2018-11-14T13:25:14.411Z,6.10
2018-11-14T13:27:44.187Z,4.33
2018-11-14T13:30:15.638Z,2.20
2018-11-14T13:32:44.899Z,5.30
2018-11-14T13:35:14.770Z,5.90
2018-11-14T13:37:43.872Z,5.00
2018-11-14T13:40:12.499Z,5.77
2018-11-14T13:42:41.194Z,3.80
2018-11-14T13:45:11.318Z,6.53
2018-11-14T13:47:40.082Z,6.17
2018-11-14T13:50:11.508Z,5.20
2018-11-14T13:52:39.959Z,5.00
2018-11-14T13:55:10.346Z,4.40
2018-11-14T13:57:38.882Z,5.10
2018-11-14T14:00:09.453Z,5.43
2018-11-14T14:02:37.966Z,6.13
2018-11-14T14:05:08.347Z,5.53
2018-11-14T14:07:36.842Z,4.80
2018-11-14T14:10:06.215Z,6.43
2018-11-14T14:12:34.758Z,7.03
2018-11-14T14:15:03.490Z,8.80
2018-11-14T14:17:32.022Z,7.33
2018-11-14T14:20:00.515Z,6.57
2018-11-14T14:22:29.054Z,6.20
2018-11-14T14:24:57.546Z,6.27
2018-11-14T14:27:26.047Z,5.43
2018-11-14T14:29:54.554Z,5.30
2018-11-14T14:32:23.045Z,5.40
2018-11-14T14:34:51.578Z,6.07
2018-11-14T14:37:20.069Z,5.70
2018-11-14T14:39:48.594Z,10.40
2018-11-14T14:42:17.141Z,16.30
2018-11-14T14:44:45.670Z,13.27
2018-11-14T14:47:14.214Z,15.77
2018-11-14T14:49:42.756Z,8.90
2018-11-14T14:52:11.306Z,10.73
2018-11-14T14:54:39.809Z,8.50
2018-11-14T14:57:08.305Z,8.03
2018-11-14T14:59:36.830Z,7.97
2018-11-14T15:02:05.994Z,8.80
2018-11-14T15:04:34.544Z,7.73
2018-11-14T15:07:03.225Z,8.33
2018-11-14T15:09:31.806Z,8.37
2018-11-14T15:12:00.245Z,7.50
2018-11-14T15:14:28.753Z,9.30
2018-11-14T15:16:57.314Z,7.73
2018-11-14T15:19:25.988Z,8.40
2018-11-14T15:21:54.473Z,10.50
2018-11-14T15:24:23.009Z,8.83
2018-11-14T15:26:51.521Z,12.60
2018-11-14T15:29:20.029Z,11.90
2018-11-14T15:31:48.549Z,11.80
2018-11-14T15:34:17.069Z,12.47
2018-11-14T15:36:45.621Z,8.67
2018-11-14T15:39:14.152Z,9.23
2018-11-14T15:41:42.672Z,8.40
2018-11-14T15:44:11.186Z,8.67
2018-11-14T15:46:39.724Z,8.70
2018-11-14T15:49:08.269Z,11.67
2018-11-14T15:51:36.800Z,15.33
2018-11-14T15:54:05.404Z,17.70
2018-11-14T15:56:33.960Z,20.77
2018-11-14T15:59:02.501Z,14.60
2018-11-14T16:01:31.881Z,15.33
2018-11-14T16:04:00.636Z,16.67
2018-11-14T16:06:29.100Z,14.50
2018-11-14T16:08:57.636Z,13.10
2018-11-14T16:11:26.136Z,18.90
2018-11-14T16:13:59.267Z,14.47
2018-11-14T16:16:28.211Z,7.80
2018-11-14T16:18:57.256Z,8.43
2018-11-14T16:21:25.848Z,9.17
2018-11-14T16:23:54.391Z,9.10
2018-11-14T16:26:22.916Z,11.27
2018-11-14T16:28:51.415Z,12.50
2018-11-14T16:31:19.920Z,10.33
2018-11-14T16:33:48.430Z,12.20
2018-11-14T16:36:16.942Z,9.10
2018-11-14T16:38:45.453Z,13.07
2018-11-14T16:41:14.043Z,27.60
2018-11-14T16:43:42.643Z,34.13
2018-11-14T16:46:11.239Z,20.37
2018-11-14T16:48:39.855Z,18.50
2018-11-14T16:51:08.375Z,40.30
2018-11-14T16:53:36.871Z,46.07
2018-11-14T16:56:05.527Z,38.10
2018-11-14T16:58:34.067Z,34.47
2018-11-14T17:01:02.608Z,45.30
2018-11-14T17:03:31.231Z,42.33
2018-11-14T17:06:00.470Z,25.40
2018-11-14T17:08:29.103Z,22.87
2018-11-14T17:10:57.630Z,31.10
2018-11-14T17:13:26.199Z,34.63
2018-11-14T17:15:54.755Z,40.53
2018-11-14T17:18:23.309Z,41.00
2018-11-14T17:20:51.859Z,31.33
2018-11-14T17:23:20.382Z,26.80
2018-11-14T17:25:48.883Z,25.93
2018-11-14T17:28:17.384Z,23.30
2018-11-14T17:30:45.910Z,26.37
2018-11-14T17:33:14.512Z,27.53
2018-11-14T17:35:42.979Z,36.03
2018-11-14T17:38:11.519Z,37.47
2018-11-14T17:40:40.019Z,37.43
2018-11-14T17:43:08.542Z,31.90
2018-11-14T17:45:37.058Z,30.87
2018-11-14T17:48:05.606Z,33.70
2018-11-14T17:50:34.760Z,34.60
2018-11-14T17:53:03.862Z,33.10
2018-11-14T17:55:32.535Z,32.73
2018-11-14T17:58:01.106Z,27.53
2018-11-14T18:00:30.758Z,34.40
2018-11-14T18:02:59.432Z,33.97
2018-11-14T18:05:29.370Z,35.23
2018-11-14T18:07:57.946Z,57.43
2018-11-14T18:10:27.686Z,42.63
2018-11-14T18:12:57.438Z,30.43
2018-11-14T18:15:25.986Z,31.20
2018-11-14T18:17:55.182Z,31.80
2018-11-14T18:20:25.274Z,44.57
2018-11-14T18:22:54.274Z,73.67
2018-11-14T18:25:22.916Z,68.07
2018-11-14T18:27:51.426Z,62.53
2018-11-14T18:30:21.209Z,42.30
2018-11-14T18:32:49.957Z,41.40
2018-11-14T18:35:19.345Z,39.70
2018-11-14T18:37:48.630Z,37.40
2018-11-14T18:40:20.474Z,40.60
2018-11-14T18:42:49.215Z,37.20
2018-11-14T18:45:21.181Z,40.47
2018-11-14T18:47:49.985Z,36.53
2018-11-14T18:50:19.286Z,36.57
2018-11-14T18:52:48.253Z,44.00
2018-11-14T18:55:17.921Z,40.47
2018-11-14T18:57:46.738Z,39.57
2018-11-14T19:00:18.227Z,42.07
2018-11-14T19:02:46.761Z,38.90
2018-11-14T19:05:15.913Z,40.00
2018-11-14T19:07:44.621Z,37.27
2018-11-14T19:10:15.241Z,36.10
2018-11-14T19:12:44.449Z,38.60
2018-11-14T19:15:15.097Z,38.17
2018-11-14T19:17:43.620Z,39.57
2018-11-14T19:20:16.674Z,38.70
2018-11-14T19:22:45.265Z,38.77
2018-11-14T19:25:15.945Z,37.07
2018-11-14T19:27:45.265Z,39.70
2018-11-14T19:30:15.189Z,38.07
2018-11-14T19:32:44.881Z,41.33
2018-11-14T19:35:13.884Z,51.37
2018-11-14T19:37:43.522Z,42.33
2018-11-14T19:40:15.190Z,39.97
2018-11-14T19:42:44.373Z,43.97
2018-11-14T19:45:14.917Z,38.63
2018-11-14T19:47:43.845Z,36.83
2018-11-14T19:50:13.770Z,39.87
2018-11-14T19:52:42.528Z,37.93
2018-11-14T19:55:12.468Z,38.43
2018-11-14T19:57:41.921Z,41.60
2018-11-14T20:00:12.369Z,39.40
2018-11-14T20:02:40.982Z,45.30
2018-11-14T20:05:10.796Z,39.30
2018-11-14T20:07:39.332Z,46.73
2018-11-14T20:10:11.766Z,47.63
2018-11-14T20:12:40.307Z,36.40
2018-11-14T20:15:10.944Z,36.20
2018-11-14T20:17:40.180Z,37.07
2018-11-14T20:20:11.016Z,38.00
2018-11-14T20:22:40.808Z,41.80
2018-11-14T20:25:10.184Z,39.23
2018-11-14T20:27:39.256Z,45.97
2018-11-14T20:30:12.515Z,45.90
2018-11-14T20:32:41.156Z,39.53
2018-11-14T20:35:10.855Z,39.77
2018-11-14T20:37:39.637Z,38.20
2018-11-14T20:40:09.600Z,37.13
2018-11-14T20:42:38.481Z,37.80
2018-11-14T20:45:13.055Z,39.63
2018-11-14T20:47:41.624Z,36.53
2018-11-14T20:50:12.687Z,34.87
2018-11-14T20:52:41.375Z,35.60
2018-11-14T20:55:10.608Z,37.30
2018-11-14T20:57:39.823Z,36.63
2018-11-14T21:00:12.832Z,38.47
2018-11-14T21:02:41.848Z,37.77
2018-11-14T21:05:11.475Z,36.83
2018-11-14T21:07:40.255Z,36.07
2018-11-14T21:10:10.732Z,35.57
2018-11-14T21:12:39.744Z,34.97
2018-11-14T21:15:09.711Z,36.87
2018-11-14T21:17:38.443Z,35.20
2018-11-14T21:20:08.019Z,35.07
2018-11-14T21:22:36.719Z,34.80
2018-11-14T21:25:06.239Z,34.07
2018-11-14T21:27:34.762Z,37.70
2018-11-14T21:30:03.310Z,37.27
2018-11-14T21:32:31.887Z,37.00
2018-11-14T21:35:00.402Z,37.70
2018-11-14T21:37:28.902Z,40.33
2018-11-14T21:39:57.428Z,37.73
2018-11-14T21:42:26.023Z,35.20
2018-11-14T21:44:54.646Z,31.53
2018-11-14T21:48:27.166Z,30.53
2018-11-14T21:50:55.781Z,101.90
2018-11-14T21:53:24.482Z,107.47
2018-11-14T21:55:52.994Z,93.80
2018-11-14T21:58:21.530Z,77.80
2018-11-14T22:00:50.177Z,70.30
2018-11-14T22:03:18.706Z,48.00
2018-11-14T22:05:47.222Z,37.97
2018-11-14T22:08:15.762Z,34.80
2018-11-14T22:10:44.289Z,46.93
2018-11-14T22:13:12.797Z,47.83
2018-11-14T22:15:41.326Z,59.50
2018-11-14T22:18:09.855Z,34.73
2018-11-14T22:20:38.359Z,36.80
2018-11-14T22:23:06.876Z,38.53
2018-11-14T22:25:35.430Z,40.53
2018-11-14T22:28:04.084Z,36.27
2018-11-14T22:30:33.517Z,37.77
2018-11-14T22:33:02.013Z,37.47
2018-11-14T22:35:31.810Z,44.20
2018-11-14T22:38:00.291Z,37.10
2018-11-14T22:40:30.121Z,35.40
2018-11-14T22:42:58.637Z,30.97
2018-11-14T22:45:28.313Z,30.60
2018-11-14T22:47:56.898Z,35.60
2018-11-14T22:50:25.928Z,35.83
2018-11-14T22:52:54.541Z,39.90
2018-11-14T22:55:24.201Z,35.50
2018-11-14T22:57:53.231Z,32.60
2018-11-14T23:00:37.402Z,30.90
2018-11-14T23:03:06.034Z,32.07
2018-11-14T23:05:34.541Z,28.13
2018-11-14T23:08:03.049Z,28.30
2018-11-14T23:10:31.597Z,31.00
2018-11-14T23:13:00.134Z,30.93
2018-11-14T23:15:28.735Z,33.17
2018-11-14T23:17:57.251Z,34.87
2018-11-14T23:20:25.816Z,30.17
2018-11-14T23:22:54.826Z,34.20
2018-11-14T23:25:23.618Z,35.07
2018-11-14T23:27:53.245Z,34.13
2018-11-14T23:30:22.952Z,32.10
2018-11-14T23:32:52.470Z,32.57
2018-11-14T23:35:24.972Z,34.87
2018-11-14T23:37:54.796Z,34.87
2018-11-14T23:40:23.344Z,35.23
2018-11-14T23:42:51.920Z,35.83
2018-11-14T23:45:21.390Z,31.70
2018-11-14T23:47:50.217Z,32.40
2018-11-14T23:50:19.960Z,32.90
2018-11-14T23:52:49.456Z,31.27
2018-11-14T23:55:18.784Z,32.97
2018-11-14T23:57:47.348Z,32.83
